createdAt,value
2023-05-10T00:02:19.961Z,100.00
2023-05-10T00:04:46.634Z,100.00
2023-05-10T00:07:13.366Z,100.00
2023-05-10T00:09:40.066Z,100.00
2023-05-10T00:12:06.940Z,100.00
2023-05-10T00:14:33.567Z,100.00
2023-05-10T00:17:00.254Z,100.00
2023-05-10T00:19:26.986Z,100.00
2023-05-10T00:21:53.844Z,100.00
2023-05-10T00:24:20.527Z,100.00
2023-05-10T00:26:47.627Z,100.00
2023-05-10T00:29:14.382Z,100.00
2023-05-10T00:31:41.097Z,100.00
2023-05-10T00:34:07.853Z,100.00
2023-05-10T00:36:34.501Z,100.00
2023-05-10T00:39:01.586Z,100.00
2023-05-10T00:41:28.530Z,100.00
2023-05-10T00:43:55.258Z,100.00
2023-05-10T00:46:22.987Z,100.00
2023-05-10T00:48:50.200Z,100.00
2023-05-10T00:51:17.094Z,100.00
2023-05-10T00:53:46.529Z,100.00
2023-05-10T00:56:14.076Z,100.00
2023-05-10T00:58:41.257Z,100.00
2023-05-10T01:01:08.945Z,100.00
2023-05-10T01:03:37.041Z,100.00
2023-05-10T01:06:04.517Z,100.00
2023-05-10T01:08:31.304Z,100.00
2023-05-10T01:10:58.579Z,100.00
2023-05-10T01:13:39.041Z,100.00
2023-05-10T01:16:07.597Z,100.00
2023-05-10T01:18:37.741Z,100.00
2023-05-10T01:21:34.198Z,100.00
2023-05-10T01:24:23.940Z,100.00
2023-05-10T01:26:50.607Z,100.00
2023-05-10T01:29:36.051Z,100.00
2023-05-10T01:32:11.642Z,100.00
2023-05-10T01:34:51.635Z,100.00
2023-05-10T01:37:26.451Z,100.00
2023-05-10T01:40:19.683Z,100.00
2023-05-10T01:42:53.071Z,100.00
2023-05-10T01:45:28.572Z,100.00
2023-05-10T01:48:10.759Z,100.00
2023-05-10T01:50:40.867Z,100.00
2023-05-10T01:53:09.034Z,100.00
2023-05-10T01:55:43.974Z,100.00
2023-05-10T01:58:14.248Z,100.00
2023-05-10T02:00:46.026Z,100.00
2023-05-10T02:03:14.967Z,100.00
2023-05-10T02:05:43.074Z,100.00
2023-05-10T02:08:10.812Z,100.00
2023-05-10T02:10:38.906Z,100.00
2023-05-10T02:13:08.440Z,100.00
2023-05-10T02:15:36.392Z,100.00
2023-05-10T02:18:05.092Z,100.00
2023-05-10T02:20:33.482Z,100.00
2023-05-10T02:23:01.090Z,100.00
2023-05-10T02:25:28.587Z,100.00
2023-05-10T02:27:58.055Z,100.00
2023-05-10T02:30:25.794Z,100.00
2023-05-10T02:32:53.444Z,100.00
2023-05-10T02:35:21.071Z,100.00
2023-05-10T02:37:49.007Z,100.00
2023-05-10T02:40:17.988Z,100.00
2023-05-10T02:42:46.619Z,100.00
2023-05-10T02:45:16.501Z,100.00
2023-05-10T02:47:43.388Z,100.00
2023-05-10T02:50:10.729Z,100.00
2023-05-10T02:52:54.906Z,100.00
2023-05-10T02:55:26.665Z,100.00
2023-05-10T02:58:02.146Z,100.00
2023-05-10T03:00:29.545Z,100.00
2023-05-10T03:02:56.460Z,100.00
2023-05-10T03:05:23.498Z,100.00
2023-05-10T03:07:50.828Z,100.00
2023-05-10T03:10:19.075Z,100.00
2023-05-10T03:12:49.272Z,100.00
2023-05-10T03:15:15.854Z,100.00
2023-05-10T03:17:51.524Z,100.00
2023-05-10T03:20:27.070Z,100.00
2023-05-10T03:23:04.014Z,100.00
2023-05-10T03:25:32.796Z,100.00
2023-05-10T03:28:03.501Z,100.00
2023-05-10T03:30:31.244Z,100.00
2023-05-10T03:32:58.215Z,100.00
2023-05-10T03:35:24.945Z,100.00
2023-05-10T03:37:51.627Z,100.00
2023-05-10T03:40:18.701Z,100.00
2023-05-10T03:42:45.657Z,100.00
2023-05-10T03:45:12.308Z,100.00
2023-05-10T03:47:39.026Z,100.00
2023-05-10T03:50:06.548Z,100.00
2023-05-10T03:52:33.263Z,100.00
2023-05-10T03:54:59.946Z,100.00
2023-05-10T03:57:26.650Z,100.00
2023-05-10T03:59:53.327Z,100.00
2023-05-10T04:02:20.052Z,100.00
2023-05-10T04:04:46.718Z,100.00
2023-05-10T04:07:13.446Z,100.00
2023-05-10T04:09:40.165Z,100.00
2023-05-10T04:12:08.439Z,100.00
2023-05-10T04:14:36.196Z,100.00
2023-05-10T04:17:03.001Z,100.00
2023-05-10T04:19:33.033Z,100.00
2023-05-10T04:21:59.907Z,100.00
2023-05-10T04:24:26.609Z,100.00
2023-05-10T04:26:53.616Z,100.00
2023-05-10T04:29:20.768Z,100.00
2023-05-10T04:31:47.697Z,100.00
2023-05-10T04:34:14.403Z,100.00
2023-05-10T04:36:41.175Z,100.00
2023-05-10T04:39:08.160Z,100.00
2023-05-10T04:41:34.922Z,100.00
2023-05-10T04:44:01.588Z,100.00
2023-05-10T04:46:28.353Z,100.00
2023-05-10T04:48:55.045Z,100.00
2023-05-10T04:51:21.813Z,100.00
2023-05-10T04:54:01.543Z,100.00
2023-05-10T04:56:32.446Z,100.00
2023-05-10T04:58:59.288Z,100.00
2023-05-10T05:01:26.069Z,100.00
2023-05-10T05:03:54.183Z,100.00
2023-05-10T05:06:22.280Z,100.00
2023-05-10T05:08:50.608Z,100.00
2023-05-10T05:11:18.254Z,100.00
2023-05-10T05:13:45.025Z,100.00
2023-05-10T05:16:12.599Z,100.00
2023-05-10T05:18:39.944Z,100.00
2023-05-10T05:21:20.234Z,100.00
2023-05-10T05:23:47.202Z,100.00
2023-05-10T05:26:14.028Z,100.00
2023-05-10T05:28:40.716Z,100.00
2023-05-10T05:31:11.464Z,100.00
2023-05-10T05:33:38.517Z,100.00
2023-05-10T05:36:06.646Z,100.00
2023-05-10T05:38:33.684Z,100.00
2023-05-10T05:41:00.427Z,100.00
2023-05-10T05:43:27.368Z,100.00
2023-05-10T05:45:59.058Z,100.00
2023-05-10T05:48:26.062Z,100.00
2023-05-10T05:50:57.001Z,100.00
2023-05-10T05:53:24.435Z,100.00
2023-05-10T05:55:54.883Z,100.00
2023-05-10T05:58:22.676Z,100.00
2023-05-10T06:00:49.997Z,100.00
2023-05-10T06:03:16.875Z,100.00
2023-05-10T06:05:43.665Z,100.00
2023-05-10T06:08:10.886Z,100.00
2023-05-10T06:10:38.003Z,100.00
2023-05-10T06:13:04.756Z,100.00
2023-05-10T06:15:31.579Z,100.00
2023-05-10T06:17:58.303Z,100.00
2023-05-10T06:20:25.128Z,100.00
2023-05-10T06:22:51.826Z,100.00
2023-05-10T06:25:19.545Z,100.00
2023-05-10T06:27:49.789Z,100.00
2023-05-10T06:30:17.791Z,100.00
2023-05-10T06:32:45.203Z,100.00
2023-05-10T06:35:12.053Z,100.00
2023-05-10T06:37:38.731Z,100.00
2023-05-10T06:40:06.906Z,100.00
2023-05-10T06:42:33.596Z,100.00
2023-05-10T06:45:00.252Z,100.00
2023-05-10T06:47:27.082Z,100.00
2023-05-10T06:49:53.779Z,100.00
2023-05-10T06:52:20.528Z,100.00
2023-05-10T06:54:47.241Z,100.00
2023-05-10T06:57:27.593Z,100.00
2023-05-10T06:59:58.172Z,100.00
2023-05-10T07:02:24.861Z,100.00
2023-05-10T07:04:53.001Z,100.00
2023-05-10T07:07:20.099Z,100.00
2023-05-10T07:09:46.926Z,100.00
2023-05-10T07:12:15.206Z,100.00
2023-05-10T07:14:43.070Z,100.00
2023-05-10T07:17:10.366Z,100.00
2023-05-10T07:19:37.378Z,100.00
2023-05-10T07:22:04.168Z,100.00
2023-05-10T07:24:32.372Z,100.00
2023-05-10T07:26:59.091Z,100.00
2023-05-10T07:29:26.246Z,100.00
2023-05-10T07:31:53.116Z,100.00
2023-05-10T07:34:19.954Z,100.00
2023-05-10T07:36:46.858Z,100.00
2023-05-10T07:39:21.212Z,100.00
2023-05-10T07:41:51.344Z,100.00
2023-05-10T07:44:20.264Z,100.00
2023-05-10T07:46:48.735Z,100.00
2023-05-10T07:49:15.485Z,100.00
2023-05-10T07:51:43.497Z,100.00
2023-05-10T07:54:10.257Z,100.00
2023-05-10T07:56:37.288Z,100.00
2023-05-10T07:59:09.702Z,100.00
2023-05-10T08:01:37.753Z,100.00
2023-05-10T08:04:04.590Z,100.00
2023-05-10T08:06:31.515Z,87.22
2023-05-10T08:08:58.702Z,91.71
2023-05-10T08:11:26.047Z,85.33
2023-05-10T08:13:53.046Z,83.72
2023-05-10T08:16:20.099Z,82.04
2023-05-10T08:18:48.204Z,80.76
2023-05-10T08:21:16.004Z,83.34
2023-05-10T08:23:44.953Z,77.47
2023-05-10T08:26:12.206Z,76.52
2023-05-10T08:28:39.280Z,78.01
2023-05-10T08:31:06.613Z,78.51
2023-05-10T08:33:33.572Z,68.47
2023-05-10T08:36:00.313Z,67.21
2023-05-10T08:38:27.153Z,64.40
2023-05-10T08:40:57.694Z,66.81
2023-05-10T08:43:31.345Z,66.62
2023-05-10T08:46:02.380Z,67.41
2023-05-10T08:48:31.084Z,63.93
2023-05-10T08:51:01.036Z,64.91
2023-05-10T08:53:29.916Z,63.16
2023-05-10T08:55:56.816Z,61.92
2023-05-10T08:58:23.744Z,57.01
2023-05-10T09:00:54.146Z,56.63
2023-05-10T09:03:21.103Z,54.16
2023-05-10T09:05:48.775Z,54.73
2023-05-10T09:08:17.456Z,65.89
2023-05-10T09:10:49.386Z,64.35
2023-05-10T09:13:16.781Z,63.70
2023-05-10T09:15:45.814Z,65.23
2023-05-10T09:18:13.460Z,67.32
2023-05-10T09:20:40.296Z,58.22
2023-05-10T09:23:07.154Z,67.24
2023-05-10T09:25:38.242Z,68.34
2023-05-10T09:28:08.421Z,71.51
2023-05-10T09:30:35.326Z,77.91
2023-05-10T09:33:02.866Z,88.38
2023-05-10T09:35:33.265Z,85.39
2023-05-10T09:38:06.665Z,96.14
2023-05-10T09:40:33.844Z,95.10
2023-05-10T09:43:10.033Z,100.00
2023-05-10T09:45:38.821Z,100.00
2023-05-10T09:48:06.262Z,100.00
2023-05-10T09:50:33.237Z,100.00
2023-05-10T09:53:01.896Z,100.00
2023-05-10T09:55:41.803Z,100.00
2023-05-10T09:58:11.935Z,100.00
2023-05-10T10:00:42.872Z,100.00
2023-05-10T10:03:17.466Z,100.00
2023-05-10T10:05:45.549Z,100.00
2023-05-10T10:08:13.480Z,100.00
2023-05-10T10:10:47.062Z,100.00
2023-05-10T10:13:14.843Z,100.00
2023-05-10T10:15:43.125Z,100.00
2023-05-10T10:18:14.313Z,100.00
2023-05-10T10:20:41.946Z,100.00
2023-05-10T10:23:09.643Z,100.00
2023-05-10T10:25:36.725Z,100.00
2023-05-10T10:28:28.031Z,100.00
2023-05-10T10:30:57.766Z,100.00
2023-05-10T10:33:53.127Z,100.00
2023-05-10T10:36:20.399Z,100.00
2023-05-10T10:38:47.056Z,100.00
2023-05-10T10:41:33.429Z,100.00
2023-05-10T10:44:40.233Z,100.00
2023-05-10T10:47:13.323Z,100.00
2023-05-10T10:49:49.111Z,100.00
2023-05-10T10:52:24.959Z,100.00
2023-05-10T10:54:53.424Z,100.00
2023-05-10T10:57:22.741Z,100.00
2023-05-10T10:59:50.023Z,100.00
2023-05-10T11:02:44.191Z,100.00
2023-05-10T11:05:42.801Z,100.00
2023-05-10T11:08:20.112Z,100.00
2023-05-10T11:10:55.588Z,100.00
2023-05-10T11:13:42.736Z,100.00
2023-05-10T11:16:21.294Z,100.00
2023-05-10T11:19:11.640Z,100.00
2023-05-10T11:22:12.197Z,100.00
2023-05-10T11:24:38.898Z,100.00
2023-05-10T11:27:07.066Z,100.00
2023-05-10T11:29:33.718Z,100.00
2023-05-10T11:32:01.172Z,100.00
2023-05-10T11:34:36.464Z,100.00
2023-05-10T11:37:03.293Z,100.00
2023-05-10T11:39:31.447Z,100.00
2023-05-10T11:41:59.386Z,100.00
2023-05-10T11:44:32.980Z,100.00
2023-05-10T11:47:03.226Z,100.00
2023-05-10T11:49:30.104Z,100.00
2023-05-10T11:52:08.055Z,100.00
2023-05-10T11:54:37.809Z,100.00
2023-05-10T11:57:05.229Z,100.00
2023-05-10T11:59:32.024Z,100.00
2023-05-10T12:01:59.089Z,100.00
2023-05-10T12:04:27.048Z,100.00
2023-05-10T12:06:53.884Z,100.00
2023-05-10T12:09:31.486Z,100.00
2023-05-10T12:12:06.967Z,100.00
2023-05-10T12:14:36.207Z,100.00
2023-05-10T12:17:02.928Z,100.00
2023-05-10T12:19:29.707Z,100.00
2023-05-10T12:21:56.436Z,100.00
2023-05-10T12:24:23.215Z,100.00
2023-05-10T12:29:35.779Z,100.00
2023-05-10T12:32:03.604Z,100.00
2023-05-10T12:34:35.384Z,100.00
2023-05-10T12:37:03.804Z,100.00
2023-05-10T12:39:43.763Z,100.00
2023-05-10T12:42:10.934Z,100.00
2023-05-10T12:44:37.634Z,100.00
2023-05-10T12:47:04.349Z,100.00
2023-05-10T12:49:31.141Z,100.00
2023-05-10T12:51:57.839Z,100.00
2023-05-10T12:54:24.852Z,100.00
2023-05-10T12:56:51.646Z,100.00
2023-05-10T12:59:18.271Z,100.00
2023-05-10T13:01:44.963Z,100.00
2023-05-10T13:04:18.932Z,100.00
2023-05-10T13:06:45.716Z,100.00
2023-05-10T13:09:12.453Z,100.00
2023-05-10T13:11:39.329Z,100.00
2023-05-10T13:14:06.186Z,100.00
2023-05-10T13:16:33.112Z,100.00
2023-05-10T13:19:01.951Z,100.00
2023-05-10T13:21:29.086Z,100.00
2023-05-10T13:23:55.754Z,100.00
2023-05-10T13:26:22.528Z,100.00
2023-05-10T13:28:49.966Z,100.00
2023-05-10T13:31:16.736Z,100.00
2023-05-10T13:33:43.462Z,100.00
2023-05-10T13:36:10.210Z,100.00
2023-05-10T13:38:37.193Z,100.00
2023-05-10T13:41:04.083Z,100.00
2023-05-10T13:43:31.219Z,100.00
2023-05-10T13:45:58.043Z,100.00
2023-05-10T13:48:24.745Z,100.00
2023-05-10T13:50:51.422Z,100.00
2023-05-10T13:53:18.098Z,100.00
2023-05-10T13:55:44.847Z,100.00
2023-05-10T13:58:12.571Z,100.00
2023-05-10T14:00:39.289Z,100.00
2023-05-10T14:03:07.511Z,100.00
2023-05-10T14:05:34.302Z,100.00
2023-05-10T14:08:00.920Z,100.00
2023-05-10T14:10:27.609Z,100.00
2023-05-10T14:12:54.213Z,100.00
2023-05-10T14:15:21.068Z,100.00
2023-05-10T14:17:47.755Z,100.00
2023-05-10T14:20:14.499Z,100.00
2023-05-10T14:22:41.528Z,100.00
2023-05-10T14:25:08.847Z,100.00
2023-05-10T14:27:35.777Z,100.00
2023-05-10T14:30:02.481Z,100.00
2023-05-10T14:32:29.550Z,100.00
2023-05-10T14:34:56.812Z,100.00
2023-05-10T14:37:23.534Z,100.00
2023-05-10T14:39:50.247Z,100.00
2023-05-10T14:42:16.980Z,100.00
2023-05-10T14:44:43.659Z,100.00
2023-05-10T14:47:12.084Z,100.00
2023-05-10T14:49:40.083Z,100.00
2023-05-10T14:52:06.765Z,100.00
2023-05-10T14:54:34.610Z,100.00
2023-05-10T14:57:01.741Z,100.00
2023-05-10T14:59:28.401Z,100.00
2023-05-10T15:01:55.490Z,100.00
2023-05-10T15:04:22.614Z,100.00
2023-05-10T15:06:49.718Z,100.00
2023-05-10T15:09:17.479Z,100.00
2023-05-10T15:11:45.523Z,100.00
2023-05-10T15:14:12.222Z,100.00
2023-05-10T15:16:38.928Z,100.00
2023-05-10T15:19:05.763Z,100.00
2023-05-10T15:21:39.665Z,100.00
2023-05-10T15:24:06.990Z,100.00
2023-05-10T15:26:33.692Z,100.00
2023-05-10T15:29:00.488Z,100.00
2023-05-10T15:31:28.229Z,100.00
2023-05-10T15:34:01.942Z,100.00
2023-05-10T15:36:28.631Z,100.00
2023-05-10T15:38:55.787Z,100.00
2023-05-10T15:41:25.704Z,100.00
2023-05-10T15:43:52.441Z,100.00
2023-05-10T15:46:19.173Z,100.00
2023-05-10T15:48:45.903Z,100.00
2023-05-10T15:51:12.664Z,100.00
2023-05-10T15:53:46.652Z,100.00
2023-05-10T15:56:19.833Z,100.00
2023-05-10T15:58:46.930Z,100.00
2023-05-10T16:01:13.870Z,100.00
2023-05-10T16:03:40.647Z,100.00
2023-05-10T16:06:07.506Z,100.00
2023-05-10T16:08:34.284Z,100.00
2023-05-10T16:11:02.176Z,100.00
2023-05-10T16:13:29.596Z,100.00
2023-05-10T16:15:57.690Z,100.00
2023-05-10T16:18:24.673Z,100.00
2023-05-10T16:20:51.924Z,100.00
2023-05-10T16:23:18.756Z,100.00
2023-05-10T16:25:45.624Z,100.00
2023-05-10T16:28:12.356Z,100.00
2023-05-10T16:30:39.081Z,100.00
2023-05-10T16:33:05.839Z,100.00
2023-05-10T16:35:32.711Z,100.00
2023-05-10T16:38:00.495Z,100.00
2023-05-10T16:40:27.136Z,100.00
2023-05-10T16:42:53.827Z,100.00
2023-05-10T16:45:20.661Z,100.00
2023-05-10T16:47:47.358Z,100.00
2023-05-10T16:50:15.099Z,100.00
2023-05-10T16:52:53.759Z,100.00
2023-05-10T16:55:21.514Z,100.00
2023-05-10T16:57:49.696Z,100.00
2023-05-10T17:00:16.797Z,100.00
2023-05-10T17:02:43.598Z,100.00
2023-05-10T17:05:10.533Z,100.00
2023-05-10T17:07:37.420Z,100.00
2023-05-10T17:10:04.425Z,100.00
2023-05-10T17:12:31.071Z,100.00
2023-05-10T17:14:58.756Z,100.00
2023-05-10T17:17:25.814Z,100.00
2023-05-10T17:19:52.846Z,100.00
2023-05-10T17:22:19.660Z,100.00
2023-05-10T17:24:46.880Z,100.00
2023-05-10T17:27:14.061Z,100.00
2023-05-10T17:29:40.859Z,100.00
2023-05-10T17:32:09.437Z,100.00
2023-05-10T17:34:39.250Z,100.00
2023-05-10T17:37:05.920Z,100.00
2023-05-10T17:39:34.272Z,100.00
2023-05-10T17:42:01.062Z,100.00
2023-05-10T17:44:28.061Z,100.00
2023-05-10T17:46:54.758Z,100.00
2023-05-10T17:49:21.498Z,100.00
2023-05-10T17:51:48.328Z,100.00
2023-05-10T17:54:15.205Z,100.00
2023-05-10T17:56:42.190Z,100.00
2023-05-10T17:59:09.029Z,100.00
2023-05-10T18:01:36.137Z,100.00
2023-05-10T18:04:02.952Z,100.00
2023-05-10T18:06:29.734Z,100.00
2023-05-10T18:08:56.519Z,100.00
2023-05-10T18:11:23.741Z,100.00
2023-05-10T18:13:50.518Z,100.00
2023-05-10T18:16:17.330Z,100.00
2023-05-10T18:18:44.112Z,100.00
2023-05-10T18:21:11.263Z,100.00
2023-05-10T18:23:37.952Z,100.00
2023-05-10T18:26:04.846Z,100.00
2023-05-10T18:28:31.725Z,100.00
2023-05-10T18:30:58.575Z,100.00
2023-05-10T18:33:25.352Z,100.00
2023-05-10T18:35:52.284Z,100.00
2023-05-10T18:38:19.613Z,100.00
2023-05-10T18:40:46.495Z,100.00
2023-05-10T18:43:13.350Z,100.00
2023-05-10T18:45:40.152Z,100.00
2023-05-10T18:48:07.969Z,100.00
2023-05-10T18:50:34.805Z,100.00
2023-05-10T18:53:01.507Z,100.00
2023-05-10T18:55:28.778Z,100.00
2023-05-10T18:57:55.493Z,100.00
2023-05-10T19:00:22.918Z,100.00
2023-05-10T19:02:50.644Z,100.00
2023-05-10T19:05:17.771Z,100.00
2023-05-10T19:07:44.990Z,100.00
2023-05-10T19:10:15.324Z,100.00
2023-05-10T19:12:42.811Z,100.00
2023-05-10T19:15:10.986Z,100.00
2023-05-10T19:17:43.352Z,100.00
2023-05-10T19:20:12.083Z,100.00
2023-05-10T19:22:54.339Z,100.00
2023-05-10T19:25:29.725Z,100.00
2023-05-10T19:27:59.774Z,100.00
2023-05-10T19:30:26.953Z,100.00
2023-05-10T19:32:54.312Z,100.00
2023-05-10T19:35:21.367Z,100.00
2023-05-10T19:37:49.390Z,100.00
2023-05-10T19:40:17.665Z,100.00
2023-05-10T19:42:45.110Z,100.00
2023-05-10T19:45:12.404Z,100.00
2023-05-10T19:47:39.725Z,100.00
2023-05-10T19:50:08.382Z,100.00
2023-05-10T19:52:35.577Z,100.00
2023-05-10T19:55:02.355Z,100.00
2023-05-10T19:57:29.489Z,100.00
2023-05-10T19:59:56.470Z,100.00
2023-05-10T20:02:23.476Z,100.00
2023-05-10T20:04:50.967Z,100.00
2023-05-10T20:07:18.072Z,100.00
2023-05-10T20:09:44.953Z,100.00
2023-05-10T20:12:12.333Z,100.00
2023-05-10T20:14:39.634Z,100.00
2023-05-10T20:17:06.541Z,100.00
2023-05-10T20:19:34.185Z,100.00
2023-05-10T20:22:01.603Z,100.00
2023-05-10T20:24:28.714Z,100.00
2023-05-10T20:26:55.554Z,100.00
2023-05-10T20:29:22.529Z,100.00
2023-05-10T20:31:49.340Z,100.00
2023-05-10T20:34:16.125Z,100.00
2023-05-10T20:36:43.124Z,100.00
2023-05-10T20:39:10.544Z,100.00
2023-05-10T20:41:37.283Z,100.00
2023-05-10T20:44:05.663Z,100.00
2023-05-10T20:46:33.178Z,100.00
2023-05-10T20:49:00.217Z,100.00
2023-05-10T20:51:29.032Z,100.00
2023-05-10T20:53:57.219Z,100.00
2023-05-10T20:56:23.947Z,100.00
2023-05-10T20:58:50.629Z,100.00
2023-05-10T21:01:17.355Z,100.00
2023-05-10T21:03:44.076Z,100.00
2023-05-10T21:06:10.752Z,100.00
2023-05-10T21:08:37.456Z,100.00
2023-05-10T21:11:06.933Z,100.00
2023-05-10T21:13:33.705Z,100.00
2023-05-10T21:16:00.681Z,100.00
2023-05-10T21:18:27.565Z,100.00
2023-05-10T21:20:54.490Z,100.00
2023-05-10T21:23:21.167Z,100.00
2023-05-10T21:25:47.945Z,100.00
2023-05-10T21:28:14.666Z,100.00
2023-05-10T21:30:41.409Z,100.00
2023-05-10T21:33:08.252Z,100.00
2023-05-10T21:35:34.985Z,100.00
2023-05-10T21:38:01.832Z,100.00
2023-05-10T21:40:29.080Z,100.00
2023-05-10T21:42:55.863Z,100.00
2023-05-10T21:45:22.671Z,100.00
2023-05-10T21:47:49.550Z,100.00
2023-05-10T21:50:16.488Z,100.00
2023-05-10T21:52:43.683Z,100.00
2023-05-10T21:55:10.544Z,100.00
2023-05-10T21:57:37.256Z,100.00
2023-05-10T22:00:05.028Z,100.00
2023-05-10T22:02:31.901Z,100.00
2023-05-10T22:04:58.702Z,100.00
2023-05-10T22:07:25.448Z,100.00
2023-05-10T22:09:52.220Z,100.00
2023-05-10T22:12:18.987Z,100.00
2023-05-10T22:14:45.990Z,100.00
2023-05-10T22:17:12.841Z,100.00
2023-05-10T22:19:39.747Z,100.00
2023-05-10T22:22:06.519Z,100.00
2023-05-10T22:24:33.356Z,100.00
2023-05-10T22:27:00.044Z,100.00
2023-05-10T22:29:26.801Z,100.00
2023-05-10T22:31:53.568Z,100.00
2023-05-10T22:34:20.278Z,100.00
2023-05-10T22:36:46.997Z,100.00
2023-05-10T22:39:13.706Z,100.00
2023-05-10T22:41:40.479Z,100.00
2023-05-10T22:44:08.364Z,100.00
2023-05-10T22:46:36.459Z,100.00
2023-05-10T22:49:03.327Z,100.00
2023-05-10T22:51:30.078Z,100.00
2023-05-10T22:53:56.770Z,100.00
2023-05-10T22:56:23.541Z,100.00
2023-05-10T22:58:51.153Z,100.00
2023-05-10T23:03:33.479Z,100.00
2023-05-10T23:06:00.325Z,100.00
2023-05-10T23:08:27.143Z,100.00
2023-05-10T23:10:53.926Z,100.00
2023-05-10T23:13:21.999Z,100.00
2023-05-10T23:15:48.722Z,100.00
2023-05-10T23:18:15.647Z,100.00
2023-05-10T23:20:45.719Z,100.00
2023-05-10T23:23:12.596Z,100.00
2023-05-10T23:25:39.391Z,100.00
2023-05-10T23:28:06.196Z,100.00
2023-05-10T23:30:32.924Z,100.00
2023-05-10T23:32:59.802Z,100.00
2023-05-10T23:35:26.572Z,100.00
2023-05-10T23:37:53.312Z,100.00
2023-05-10T23:40:20.185Z,100.00
2023-05-10T23:42:47.205Z,100.00
2023-05-10T23:45:13.956Z,100.00
2023-05-10T23:47:40.668Z,100.00
2023-05-10T23:50:08.000Z,100.00
2023-05-10T23:52:34.784Z,100.00
2023-05-10T23:55:01.527Z,100.00
2023-05-10T23:57:28.364Z,100.00
2023-05-10T23:59:55.085Z,100.00
